createdAt,value
2022-12-03T00:01:56.339Z,17.87
2022-12-03T00:04:23.052Z,18.50
2022-12-03T00:06:49.742Z,18.90
2022-12-03T00:09:16.735Z,19.93
2022-12-03T00:11:44.316Z,19.37
2022-12-03T00:14:10.967Z,20.50
2022-12-03T00:16:37.912Z,19.50
2022-12-03T00:19:04.652Z,19.40
2022-12-03T00:21:35.826Z,19.37
2022-12-03T00:24:04.994Z,20.53
2022-12-03T00:26:31.623Z,20.20
2022-12-03T00:28:58.308Z,22.40
2022-12-03T00:34:10.143Z,21.07
2022-12-03T00:36:36.706Z,20.07
2022-12-03T00:39:03.391Z,21.17
2022-12-03T00:41:30.001Z,21.40
2022-12-03T00:46:41.830Z,20.47
2022-12-03T00:51:52.865Z,21.03
2022-12-03T00:54:20.115Z,21.07
2022-12-03T00:56:46.833Z,21.60
2022-12-03T00:59:13.515Z,21.63
2022-12-03T01:01:40.358Z,21.90
2022-12-03T01:04:06.895Z,22.50
2022-12-03T01:06:33.455Z,22.53
2022-12-03T01:09:00.266Z,21.20
2022-12-03T01:11:39.024Z,20.43
2022-12-03T01:14:06.155Z,21.03
2022-12-03T01:16:32.962Z,21.83
2022-12-03T01:18:59.533Z,22.07
2022-12-03T01:24:10.300Z,20.53
2022-12-03T01:26:36.881Z,21.07
2022-12-03T01:29:03.994Z,21.63
2022-12-03T01:34:33.539Z,21.57
2022-12-03T01:39:46.495Z,21.97
2022-12-03T01:42:15.544Z,23.57
2022-12-03T01:44:42.115Z,23.57
2022-12-03T01:47:14.087Z,21.93
2022-12-03T01:49:43.817Z,22.20
2022-12-03T01:52:11.548Z,22.00
2022-12-03T01:54:41.981Z,23.37
2022-12-03T02:00:02.181Z,24.77
2022-12-03T02:05:19.664Z,23.70
2022-12-03T02:10:34.555Z,24.23
2022-12-03T02:15:45.788Z,22.47
2022-12-03T02:21:05.091Z,24.20
2022-12-03T02:23:43.313Z,23.10
2022-12-03T02:26:09.816Z,22.53
2022-12-03T02:28:36.343Z,22.07
2022-12-03T02:33:49.210Z,21.90
2022-12-03T02:36:15.787Z,22.27
2022-12-03T02:38:42.322Z,20.73
2022-12-03T02:41:09.437Z,21.37
2022-12-03T02:43:35.966Z,22.43
2022-12-03T02:46:02.581Z,21.73
2022-12-03T02:48:30.034Z,21.87
2022-12-03T02:53:44.611Z,20.77
2022-12-03T02:58:57.233Z,20.30
2022-12-03T03:01:24.503Z,21.73
2022-12-03T03:03:51.116Z,20.13
2022-12-03T03:06:17.902Z,20.67
2022-12-03T03:08:44.435Z,23.10
2022-12-03T03:11:10.965Z,20.93
2022-12-03T03:13:37.708Z,21.23
2022-12-03T03:16:04.564Z,20.37
2022-12-03T03:18:31.481Z,20.37
2022-12-03T03:20:58.056Z,21.23
2022-12-03T03:23:24.807Z,21.40
2022-12-03T03:25:51.271Z,21.00
2022-12-03T03:28:18.737Z,20.90
2022-12-03T03:33:29.642Z,22.10
2022-12-03T03:35:56.288Z,21.57
2022-12-03T03:38:22.797Z,21.30
2022-12-03T03:40:49.370Z,20.13
2022-12-03T03:43:15.893Z,20.70
2022-12-03T03:45:42.606Z,20.47
2022-12-03T03:48:09.162Z,20.90
2022-12-03T03:53:19.477Z,21.77
2022-12-03T03:58:30.211Z,21.20
2022-12-03T04:00:58.004Z,21.07
2022-12-03T04:03:24.567Z,21.10
2022-12-03T04:05:51.125Z,20.27
2022-12-03T04:08:17.817Z,20.57
2022-12-03T04:11:03.148Z,21.70
2022-12-03T04:16:13.831Z,19.87
2022-12-03T04:18:43.482Z,21.47
2022-12-03T04:21:32.444Z,20.50
2022-12-03T04:23:59.160Z,21.17
2022-12-03T04:26:44.397Z,20.13
2022-12-03T04:29:11.867Z,17.67
2022-12-03T04:31:57.283Z,19.57
2022-12-03T04:34:42.579Z,21.37
2022-12-03T04:37:09.210Z,18.67
2022-12-03T04:39:35.772Z,20.63
2022-12-03T04:42:02.437Z,19.63
2022-12-03T04:44:37.771Z,19.87
2022-12-03T04:47:11.515Z,18.93
2022-12-03T04:49:41.846Z,19.13
2022-12-03T04:52:08.643Z,19.13
2022-12-03T04:57:19.435Z,19.40
2022-12-03T05:02:30.235Z,20.27
2022-12-03T05:04:56.882Z,19.47
2022-12-03T05:07:23.411Z,18.70
2022-12-03T05:09:49.972Z,19.37
2022-12-03T05:15:00.445Z,19.70
2022-12-03T05:17:26.982Z,20.23
2022-12-03T05:20:12.456Z,19.47
2022-12-03T05:22:39.012Z,19.47
2022-12-03T05:25:05.781Z,19.73
2022-12-03T05:27:32.320Z,19.83
2022-12-03T05:29:58.894Z,18.93
2022-12-03T05:32:25.957Z,19.20
2022-12-03T05:34:53.003Z,18.90
2022-12-03T05:37:20.041Z,17.53
2022-12-03T05:39:46.561Z,19.23
2022-12-03T05:42:31.828Z,19.77
2022-12-03T05:44:58.395Z,19.00
2022-12-03T05:47:24.842Z,20.30
2022-12-03T05:49:51.380Z,19.43
2022-12-03T05:52:17.867Z,19.43
2022-12-03T05:54:44.428Z,19.73
2022-12-03T05:59:54.730Z,19.57
2022-12-03T06:02:36.503Z,20.83
2022-12-03T06:05:03.316Z,20.47
2022-12-03T06:07:29.950Z,22.07
2022-12-03T06:09:56.584Z,23.20
2022-12-03T06:12:23.111Z,23.27
2022-12-03T06:14:49.735Z,23.97
2022-12-03T06:17:16.313Z,21.20
2022-12-03T06:19:42.921Z,22.37
2022-12-03T06:22:11.287Z,23.00
2022-12-03T06:24:38.068Z,21.77
2022-12-03T06:27:04.653Z,20.27
2022-12-03T06:29:31.206Z,20.93
2022-12-03T06:31:57.785Z,20.00
2022-12-03T06:34:24.296Z,20.93
2022-12-03T06:36:50.986Z,21.00
2022-12-03T06:42:02.374Z,20.50
2022-12-03T06:44:29.528Z,22.23
2022-12-03T06:46:56.306Z,21.90
2022-12-03T06:49:22.926Z,21.13
2022-12-03T06:54:33.720Z,21.30
2022-12-03T06:59:44.530Z,22.00
2022-12-03T07:02:12.596Z,20.73
2022-12-03T07:04:44.675Z,18.33
2022-12-03T07:07:12.784Z,18.53
2022-12-03T07:09:39.454Z,17.53
2022-12-03T07:12:06.141Z,16.23
2022-12-03T07:14:32.698Z,18.47
2022-12-03T07:16:59.243Z,17.57
2022-12-03T07:19:32.127Z,17.83
2022-12-03T07:21:59.293Z,18.97
2022-12-03T07:24:25.907Z,17.27
2022-12-03T07:26:52.454Z,16.10
2022-12-03T07:32:03.452Z,17.57
2022-12-03T07:34:29.948Z,18.30
2022-12-03T07:36:56.937Z,17.83
2022-12-03T07:39:23.490Z,18.23
2022-12-03T07:44:34.287Z,19.50
2022-12-03T07:49:44.992Z,24.53
2022-12-03T07:52:11.517Z,18.57
2022-12-03T07:54:38.159Z,19.57
2022-12-03T07:57:04.774Z,19.07
2022-12-03T07:59:32.183Z,18.23
2022-12-03T08:01:58.888Z,19.83
2022-12-03T08:04:26.304Z,19.67
2022-12-03T08:06:53.059Z,16.50
2022-12-03T08:09:19.678Z,18.43
2022-12-03T08:11:47.813Z,18.57
2022-12-03T08:14:15.222Z,17.70
2022-12-03T08:16:42.342Z,18.83
2022-12-03T08:19:09.611Z,17.67
2022-12-03T08:21:36.361Z,18.90
2022-12-03T08:24:11.817Z,17.03
2022-12-03T08:29:24.560Z,17.57
2022-12-03T08:31:52.384Z,18.63
2022-12-03T08:34:20.129Z,17.40
2022-12-03T08:36:47.039Z,23.40
2022-12-03T08:39:35.872Z,19.47
2022-12-03T08:42:27.400Z,17.90
2022-12-03T08:44:55.933Z,20.03
2022-12-03T08:47:23.211Z,19.57
2022-12-03T08:50:04.845Z,19.17
2022-12-03T08:52:32.354Z,17.13
2022-12-03T08:54:59.028Z,16.00
2022-12-03T08:57:32.415Z,17.23
2022-12-03T09:00:01.274Z,16.57
2022-12-03T09:02:32.731Z,16.13
2022-12-03T09:05:00.117Z,16.93
2022-12-03T09:07:27.076Z,16.93
2022-12-03T09:09:54.348Z,18.07
2022-12-03T09:12:21.275Z,16.73
2022-12-03T09:14:48.214Z,17.30
2022-12-03T09:17:16.497Z,17.10
2022-12-03T09:19:46.195Z,16.60
2022-12-03T09:22:13.414Z,18.57
2022-12-03T09:24:48.544Z,19.00
2022-12-03T09:27:15.629Z,18.63
2022-12-03T09:29:42.228Z,19.73
2022-12-03T09:32:16.659Z,16.30
2022-12-03T09:34:45.530Z,17.33
2022-12-03T09:37:12.184Z,17.50
2022-12-03T09:39:38.746Z,18.43
2022-12-03T09:42:05.750Z,16.67
2022-12-03T09:44:32.820Z,17.77
2022-12-03T09:47:00.299Z,16.50
2022-12-03T09:49:27.416Z,16.33
2022-12-03T09:51:58.534Z,17.07
2022-12-03T09:54:26.110Z,16.90
2022-12-03T09:56:57.192Z,16.50
2022-12-03T09:59:48.581Z,17.23
2022-12-03T10:02:25.250Z,17.03
2022-12-03T10:04:53.075Z,17.23
2022-12-03T10:07:21.029Z,17.63
2022-12-03T10:12:32.820Z,16.60
2022-12-03T10:15:01.911Z,17.43
2022-12-03T10:17:28.788Z,16.63
2022-12-03T10:19:55.662Z,16.87
2022-12-03T10:22:24.758Z,17.97
2022-12-03T10:25:04.640Z,18.20
2022-12-03T10:30:16.976Z,17.80
2022-12-03T10:32:45.252Z,18.83
2022-12-03T10:35:15.189Z,18.13
2022-12-03T10:37:57.495Z,19.17
2022-12-03T10:40:27.653Z,18.87
2022-12-03T10:42:55.780Z,20.10
2022-12-03T10:45:22.865Z,17.97
2022-12-03T10:48:02.975Z,19.40
2022-12-03T10:50:30.425Z,19.37
2022-12-03T10:52:57.213Z,18.67
2022-12-03T10:55:24.084Z,20.03
2022-12-03T11:00:35.053Z,18.40
2022-12-03T11:03:02.940Z,19.67
2022-12-03T11:05:29.822Z,19.10
2022-12-03T11:07:56.690Z,19.27
2022-12-03T11:10:25.071Z,20.30
2022-12-03T11:13:10.696Z,18.70
2022-12-03T11:15:44.327Z,19.47
2022-12-03T11:18:11.166Z,19.23
2022-12-03T11:23:45.749Z,19.47
2022-12-03T11:26:18.671Z,18.17
2022-12-03T11:28:46.256Z,19.20
2022-12-03T11:31:31.676Z,18.97
2022-12-03T11:34:19.919Z,17.77
2022-12-03T11:40:04.683Z,19.17
2022-12-03T11:42:38.895Z,18.50
2022-12-03T11:45:06.046Z,17.87
2022-12-03T11:47:35.836Z,20.27
2022-12-03T11:53:32.164Z,18.57
2022-12-03T11:56:13.284Z,18.47
2022-12-03T11:58:40.331Z,18.93
2022-12-03T12:01:07.353Z,18.27
2022-12-03T12:03:35.181Z,19.63
2022-12-03T12:06:05.233Z,21.37
2022-12-03T12:08:32.293Z,23.67
2022-12-03T12:11:00.044Z,24.67
2022-12-03T12:13:35.613Z,19.63
2022-12-03T12:16:06.415Z,18.43
2022-12-03T12:18:33.200Z,18.20
2022-12-03T12:21:18.492Z,18.23
2022-12-03T12:23:45.263Z,19.13
2022-12-03T12:26:13.689Z,17.87
2022-12-03T12:28:40.290Z,18.27
2022-12-03T12:31:10.933Z,19.37
2022-12-03T12:33:37.666Z,20.43
2022-12-03T12:36:10.479Z,19.83
2022-12-03T12:38:37.223Z,20.17
2022-12-03T12:41:07.018Z,21.63
2022-12-03T12:43:35.064Z,18.97
2022-12-03T12:46:25.251Z,19.67
2022-12-03T12:48:57.928Z,21.63
2022-12-03T12:51:26.303Z,19.80
2022-12-03T12:53:53.932Z,18.57
2022-12-03T12:56:25.226Z,21.23
2022-12-03T12:58:52.124Z,26.67
2022-12-03T13:01:25.770Z,19.23
2022-12-03T13:03:52.930Z,20.57
2022-12-03T13:06:20.904Z,19.47
2022-12-03T13:08:47.948Z,20.73
2022-12-03T13:11:34.731Z,21.33
2022-12-03T13:14:02.455Z,18.97
2022-12-03T13:16:30.897Z,20.27
2022-12-03T13:18:58.045Z,20.50
2022-12-03T13:21:40.914Z,20.27
2022-12-03T13:24:26.588Z,20.87
2022-12-03T13:26:53.262Z,21.87
2022-12-03T13:29:19.979Z,20.80
2022-12-03T13:31:52.964Z,20.60
2022-12-03T13:34:21.438Z,22.17
2022-12-03T13:36:53.603Z,19.97
2022-12-03T13:39:30.359Z,20.13
2022-12-03T13:42:15.924Z,18.57
2022-12-03T13:44:48.958Z,18.67
2022-12-03T13:47:16.877Z,20.40
2022-12-03T13:49:44.419Z,19.60
2022-12-03T13:52:12.903Z,20.70
2022-12-03T13:54:39.829Z,20.50
2022-12-03T13:57:06.685Z,20.13
2022-12-03T13:59:33.380Z,22.03
2022-12-03T14:02:00.250Z,20.37
2022-12-03T14:04:27.168Z,19.23
2022-12-03T14:06:53.980Z,20.30
2022-12-03T14:09:20.830Z,18.60
2022-12-03T14:12:06.315Z,20.47
2022-12-03T14:14:33.127Z,19.23
2022-12-03T14:17:00.339Z,20.13
2022-12-03T14:19:27.529Z,20.93
2022-12-03T14:21:54.226Z,21.10
2022-12-03T14:24:21.228Z,20.23
2022-12-03T14:26:47.948Z,23.57
2022-12-03T14:29:14.977Z,23.83
2022-12-03T14:31:41.707Z,20.70
2022-12-03T14:34:08.563Z,20.70
2022-12-03T14:36:35.357Z,20.83
2022-12-03T14:39:02.473Z,20.23
2022-12-03T14:41:47.599Z,20.30
2022-12-03T14:44:14.518Z,20.13
2022-12-03T14:46:41.161Z,20.13
2022-12-03T14:49:07.794Z,20.80
2022-12-03T14:51:34.474Z,20.53
2022-12-03T14:54:01.632Z,22.00
2022-12-03T14:59:15.807Z,20.57
2022-12-03T15:04:26.719Z,21.03
2022-12-03T15:06:53.458Z,21.93
2022-12-03T15:09:20.705Z,21.70
2022-12-03T15:11:47.255Z,22.60
2022-12-03T15:14:15.383Z,23.57
2022-12-03T15:16:42.048Z,20.90
2022-12-03T15:19:08.884Z,21.33
2022-12-03T15:21:35.656Z,20.93
2022-12-03T15:24:02.486Z,21.23
2022-12-03T15:26:29.127Z,20.97
2022-12-03T15:31:39.677Z,19.70
2022-12-03T15:34:06.314Z,21.20
2022-12-03T15:36:32.902Z,21.87
2022-12-03T15:38:59.640Z,23.37
2022-12-03T15:41:29.688Z,24.10
2022-12-03T15:43:57.329Z,21.67
2022-12-03T15:46:24.159Z,21.57
2022-12-03T15:48:50.874Z,24.43
2022-12-03T15:51:17.550Z,26.93
2022-12-03T15:53:44.171Z,25.53
2022-12-03T15:58:56.412Z,23.77
2022-12-03T16:04:08.075Z,22.43
2022-12-03T16:09:23.665Z,23.27
2022-12-03T16:11:53.500Z,22.90
2022-12-03T16:14:20.582Z,22.37
2022-12-03T16:16:47.199Z,24.30
2022-12-03T16:19:14.343Z,22.80
2022-12-03T16:21:41.052Z,23.23
2022-12-03T16:24:07.593Z,23.03
2022-12-03T16:26:34.237Z,24.53
2022-12-03T16:29:00.873Z,26.37
2022-12-03T16:31:27.451Z,24.70
2022-12-03T16:33:54.856Z,25.87
2022-12-03T16:36:21.499Z,23.77
2022-12-03T16:38:50.416Z,25.77
2022-12-03T16:41:17.128Z,24.97
2022-12-03T16:43:46.194Z,24.63
2022-12-03T16:46:19.486Z,24.10
2022-12-03T16:48:49.482Z,25.30
2022-12-03T16:51:19.367Z,23.67
2022-12-03T16:53:45.992Z,25.30
2022-12-03T16:56:12.544Z,24.63
2022-12-03T16:58:39.241Z,25.20
2022-12-03T17:01:06.095Z,24.50
2022-12-03T17:03:34.245Z,24.93
2022-12-03T17:06:01.120Z,25.07
2022-12-03T17:08:27.729Z,26.03
2022-12-03T17:10:54.387Z,25.00
2022-12-03T17:13:23.242Z,25.80
2022-12-03T17:15:50.237Z,27.03
2022-12-03T17:18:16.835Z,24.70
2022-12-03T17:20:43.510Z,24.70
2022-12-03T17:23:12.729Z,26.03
2022-12-03T17:25:39.257Z,25.07
2022-12-03T17:28:05.868Z,25.60
2022-12-03T17:30:32.530Z,25.93
2022-12-03T17:32:59.091Z,26.77
2022-12-03T17:38:11.316Z,27.07
2022-12-03T17:43:21.793Z,27.70
2022-12-03T17:45:48.427Z,25.80
2022-12-03T17:48:15.116Z,25.53
2022-12-03T17:50:41.645Z,26.10
2022-12-03T17:55:55.118Z,26.20
2022-12-03T18:01:09.562Z,26.07
2022-12-03T18:03:37.540Z,27.63
2022-12-03T18:06:04.353Z,27.23
2022-12-03T18:08:31.267Z,26.83
2022-12-03T18:10:57.943Z,26.17
2022-12-03T18:13:24.645Z,26.47
2022-12-03T18:15:51.600Z,26.77
2022-12-03T18:18:21.503Z,27.57
2022-12-03T18:20:48.398Z,26.17
2022-12-03T18:23:15.049Z,24.90
2022-12-03T18:28:26.591Z,25.87
2022-12-03T18:30:53.197Z,26.83
2022-12-03T18:33:21.353Z,26.60
2022-12-03T18:35:47.977Z,26.13
2022-12-03T18:38:14.809Z,27.87
2022-12-03T18:40:43.251Z,25.60
2022-12-03T18:43:13.408Z,25.57
2022-12-03T18:45:40.317Z,26.67
2022-12-03T18:48:13.676Z,27.33
2022-12-03T18:50:40.585Z,27.43
2022-12-03T18:55:53.666Z,25.73
2022-12-03T18:58:20.444Z,27.83
2022-12-03T19:00:47.567Z,27.20
2022-12-03T19:03:14.339Z,28.43
2022-12-03T19:08:25.587Z,25.93
2022-12-03T19:10:59.102Z,26.00
2022-12-03T19:13:26.520Z,25.60
2022-12-03T19:15:56.200Z,26.17
2022-12-03T19:18:23.420Z,26.53
2022-12-03T19:20:50.573Z,27.03
2022-12-03T19:23:17.267Z,24.80
2022-12-03T19:28:38.592Z,24.23
2022-12-03T19:33:51.992Z,26.77
2022-12-03T19:39:03.209Z,25.47
2022-12-03T19:41:30.820Z,26.83
2022-12-03T19:44:00.824Z,25.73
2022-12-03T19:46:29.281Z,26.97
2022-12-03T19:48:56.003Z,26.10
2022-12-03T19:51:37.485Z,25.10
2022-12-03T19:56:48.879Z,26.77
2022-12-03T19:59:16.297Z,27.70
2022-12-03T20:01:43.570Z,24.50
2022-12-03T20:04:11.574Z,25.33
2022-12-03T20:09:24.873Z,25.97
2022-12-03T20:11:51.505Z,25.30
2022-12-03T20:14:18.346Z,26.20
2022-12-03T20:16:45.291Z,26.00
2022-12-03T20:22:02.342Z,26.40
2022-12-03T20:24:30.997Z,27.47
2022-12-03T20:26:57.726Z,25.67
2022-12-03T20:29:25.781Z,26.83
2022-12-03T20:31:52.554Z,27.77
2022-12-03T20:34:19.294Z,26.80
2022-12-03T20:36:46.187Z,25.97
2022-12-03T20:39:13.413Z,27.27
2022-12-03T20:41:40.013Z,26.07
2022-12-03T20:44:07.706Z,27.80
2022-12-03T20:46:35.642Z,26.63
2022-12-03T20:49:02.348Z,27.17
2022-12-03T20:51:30.171Z,27.13
2022-12-03T20:53:57.222Z,26.17
2022-12-03T20:56:25.130Z,27.57
2022-12-03T20:58:53.805Z,28.30
2022-12-03T21:01:20.507Z,27.13
2022-12-03T21:03:47.419Z,27.57
2022-12-03T21:06:14.253Z,27.00
2022-12-03T21:08:42.443Z,29.13
2022-12-03T21:11:10.404Z,27.00
2022-12-03T21:13:37.614Z,26.23
2022-12-03T21:16:05.555Z,26.37
2022-12-03T21:18:33.334Z,27.20
2022-12-03T21:21:00.605Z,26.87
2022-12-03T21:23:27.701Z,29.43
2022-12-03T21:25:57.826Z,28.90
2022-12-03T21:28:24.948Z,28.77
2022-12-03T21:30:54.320Z,29.07
2022-12-03T21:33:20.912Z,28.43
2022-12-03T21:35:47.957Z,29.20
2022-12-03T21:38:15.909Z,28.93
2022-12-03T21:40:42.540Z,29.60
2022-12-03T21:43:10.799Z,29.50
2022-12-03T21:48:24.776Z,28.67
2022-12-03T21:51:00.281Z,27.97
2022-12-03T21:53:27.020Z,29.23
2022-12-03T21:55:53.864Z,28.37
2022-12-03T21:58:21.102Z,26.70
2022-12-03T22:00:47.862Z,27.47
2022-12-03T22:03:15.836Z,28.40
2022-12-03T22:05:42.702Z,28.30
2022-12-03T22:08:09.457Z,28.53
2022-12-03T22:10:36.305Z,28.43
2022-12-03T22:13:02.985Z,27.60
2022-12-03T22:15:29.596Z,29.93
2022-12-03T22:17:56.190Z,26.73
2022-12-03T22:20:24.434Z,27.77
2022-12-03T22:22:51.257Z,27.90
2022-12-03T22:25:18.315Z,28.13
2022-12-03T22:27:45.201Z,26.60
2022-12-03T22:30:14.390Z,27.50
2022-12-03T22:32:44.412Z,27.90
2022-12-03T22:37:55.358Z,28.10
2022-12-03T22:43:06.153Z,28.30
2022-12-03T22:48:19.184Z,29.40
2022-12-03T22:50:46.078Z,28.60
2022-12-03T22:53:12.838Z,28.83
2022-12-03T22:55:39.563Z,28.57
2022-12-03T22:58:06.270Z,29.63
2022-12-03T23:00:34.859Z,28.80
2022-12-03T23:03:01.677Z,28.50
2022-12-03T23:05:36.917Z,29.37
2022-12-03T23:08:04.919Z,28.23
2022-12-03T23:10:34.958Z,28.67
2022-12-03T23:15:46.702Z,28.63
2022-12-03T23:18:13.854Z,30.60
2022-12-03T23:20:46.573Z,29.93
2022-12-03T23:23:13.205Z,29.90
2022-12-03T23:25:39.825Z,30.83
2022-12-03T23:28:06.480Z,29.70
2022-12-03T23:30:36.600Z,29.30
2022-12-03T23:33:04.278Z,29.77
2022-12-03T23:35:31.034Z,30.93
2022-12-03T23:40:48.073Z,29.17
2022-12-03T23:43:15.553Z,29.00
2022-12-03T23:45:42.072Z,28.83
2022-12-03T23:48:08.743Z,28.50
2022-12-03T23:50:38.157Z,28.83
2022-12-03T23:53:04.769Z,29.30
2022-12-03T23:55:34.330Z,27.23
2022-12-03T23:58:01.138Z,28.70
